< < Back
Terminal Aerodrome Forecast


Current Version              Previous Versions:   1  2  3  4  5  6  7  8  9  

Terminal Aerodrome Forecast

197
FTUS44 KBMX 281700
TAFANB
TAF
KANB 281737Z 2818/0118 10007KT P6SM BKN130
     FM282300 10007KT P6SM BKN050
     FM010300 09006KT P6SM BKN025
     FM010600 09005KT P6SM OVC015
     FM010900 07005KT 4SM -DZ BR OVC007=

Latest METAR

810
SAUS70 KWBC 010800 RRM
MTRANB
METAR KANB 010753Z AUTO 08008KT 10SM OVC037 09/03 A3044 RMK AO2 SLP309
T00890028


USA.gov is the U.S. government's official web portal to all federal, state and local government web resources and services.